Time;durP1;ratioP1;P1;durP2;ratioP2;P2;SDS_P1;SDS_P2;PMS_P1;PMS_P2;Temp;Humidity;BMP_temperature;BMP_pressure;BME280_temperature;BME280_humidity;BME280_pressure;Samples;Min_cycle;Max_cycle;Signal;HPM_P1;HPM_P2
2023/08/05 00:03:01;;;;;;;5.00;2.60;;;;;;;;;;108394;1270;41233;-38
2023/08/05 00:05:35;;;;;;;5.80;2.80;;;;;;;;;;108457;1260;42316;-40
2023/08/05 00:08:10;;;;;;;5.20;2.70;;;;;;;;;;108408;1270;40470;-40
2023/08/05 00:10:47;;;;;;;6.10;2.90;;;;;;;;;;108448;1256;39406;-39
2023/08/05 00:13:22;;;;;;;4.70;2.50;;;;;;;;;;108485;1270;39003;-38
2023/08/05 00:15:55;;;;;;;5.00;2.70;;;;;;;;;;108434;1270;40061;-41
2023/08/05 00:18:30;;;;;;;5.60;2.70;;;;;;;;;;108452;1267;40720;-39
2023/08/05 00:21:04;;;;;;;5.30;2.80;;;;;;;;;;108408;1259;39610;-41
2023/08/05 00:23:38;;;;;;;5.20;2.70;;;;;;;;;;108417;1267;38759;-40
2023/08/05 00:26:12;;;;;;;4.90;2.80;;;;;;;;;;108439;1259;40185;-38
2023/08/05 00:28:46;;;;;;;5.80;2.80;;;;;;;;;;108412;1270;42019;-38
2023/08/05 00:31:22;;;;;;;5.00;2.80;;;;;;;;;;108383;1258;40850;-40
2023/08/05 00:33:58;;;;;;;5.10;2.70;;;;;;;;;;108433;1269;38988;-39
2023/08/05 00:36:32;;;;;;;6.10;2.90;;;;;;;;;;108400;1267;40948;-39
2023/08/05 00:39:06;;;;;;;5.30;2.80;;;;;;;;;;108415;1254;42122;-39
2023/08/05 00:41:39;;;;;;;5.70;3.00;;;;;;;;;;107748;1260;891307;-39
2023/08/05 00:44:15;;;;;;;5.40;2.80;;;;;;;;;;108503;1270;38821;-40
2023/08/05 00:46:49;;;;;;;4.70;2.90;;;;;;;;;;108504;1254;40218;-39
2023/08/05 00:49:24;;;;;;;5.50;2.90;;;;;;;;;;108504;1264;40538;-39
2023/08/05 00:51:59;;;;;;;5.10;2.80;;;;;;;;;;108667;1258;40815;-40
2023/08/05 00:54:34;;;;;;;5.30;3.10;;;;;;;;;;108718;1257;38638;-41
2023/08/05 00:57:13;;;;;;;4.90;3.00;;;;;;;;;;108739;1257;40305;-39
2023/08/05 00:59:49;;;;;;;5.30;3.10;;;;;;;;;;108770;1263;41903;-39
2023/08/05 01:02:24;;;;;;;5.10;2.70;;;;;;;;;;108599;1257;39635;-39
2023/08/05 01:04:58;;;;;;;4.70;2.90;;;;;;;;;;108635;1266;39889;-39
2023/08/05 01:07:35;;;;;;;5.30;3.00;;;;;;;;;;108621;1254;40077;-40
2023/08/05 01:10:11;;;;;;;5.20;3.00;;;;;;;;;;108628;1269;41736;-40
2023/08/05 01:12:48;;;;;;;4.60;2.90;;;;;;;;;;108683;1256;39474;-40
2023/08/05 01:15:21;;;;;;;5.50;3.00;;;;;;;;;;108722;1267;38780;-42
2023/08/05 01:17:58;;;;;;;5.50;3.30;;;;;;;;;;108741;1267;40832;-40
2023/08/05 01:20:44;;;;;;;5.10;3.30;;;;;;;;;;108746;1260;40623;-39
2023/08/05 01:23:23;;;;;;;6.10;3.10;;;;;;;;;;107966;1257;891503;-39
2023/08/05 01:25:58;;;;;;;6.20;3.00;;;;;;;;;;108651;1265;38639;-39
2023/08/05 01:28:35;;;;;;;5.60;3.30;;;;;;;;;;108539;1257;175471;-39
2023/08/05 01:31:10;;;;;;;5.40;3.20;;;;;;;;;;107979;1266;891968;-38
2023/08/05 01:33:47;;;;;;;5.10;3.20;;;;;;;;;;108684;1264;46684;-39
2023/08/05 01:36:24;;;;;;;5.50;3.30;;;;;;;;;;108708;1267;39765;-40
2023/08/05 01:38:57;;;;;;;5.60;3.20;;;;;;;;;;108711;1263;39922;-39
2023/08/05 01:41:31;;;;;;;5.60;3.30;;;;;;;;;;108692;1267;40788;-39
2023/08/05 01:44:09;;;;;;;5.40;3.10;;;;;;;;;;108512;1270;175469;-40
2023/08/05 01:46:47;;;;;;;5.00;3.00;;;;;;;;;;108513;1269;38439;-40
2023/08/05 01:49:24;;;;;;;4.80;3.20;;;;;;;;;;108679;1266;41349;-41
2023/08/05 01:51:58;;;;;;;5.80;3.70;;;;;;;;;;108607;1254;40606;-38
2023/08/05 01:54:31;;;;;;;5.70;3.30;;;;;;;;;;108726;1267;39753;-39
2023/08/05 01:57:07;;;;;;;6.10;3.50;;;;;;;;;;108731;1267;38625;-39
2023/08/05 01:59:40;;;;;;;5.30;3.30;;;;;;;;;;108739;1263;40212;-40
2023/08/05 02:02:14;;;;;;;5.40;3.40;;;;;;;;;;108663;1257;41094;-39
2023/08/05 02:04:48;;;;;;;6.10;3.20;;;;;;;;;;108638;1264;41238;-38
2023/08/05 02:07:23;;;;;;;5.80;3.30;;;;;;;;;;108672;1257;38828;-38
2023/08/05 02:09:57;;;;;;;5.10;3.30;;;;;;;;;;108638;1266;39914;-38
2023/08/05 02:12:30;;;;;;;5.90;3.30;;;;;;;;;;108602;1254;41859;-40
2023/08/05 02:15:05;;;;;;;5.80;3.60;;;;;;;;;;108769;1267;39394;-38
2023/08/05 02:17:39;;;;;;;5.30;3.50;;;;;;;;;;108756;1263;39742;-39
2023/08/05 02:20:15;;;;;;;6.00;3.30;;;;;;;;;;108776;1265;40111;-49
2023/08/05 02:22:48;;;;;;;5.40;3.40;;;;;;;;;;108687;1254;40556;-39
2023/08/05 02:25:22;;;;;;;5.10;3.20;;;;;;;;;;108603;1263;39700;-38
2023/08/05 02:27:56;;;;;;;5.30;3.50;;;;;;;;;;108643;1267;38887;-39
2023/08/05 02:30:30;;;;;;;5.30;3.40;;;;;;;;;;108617;1261;39606;-45
2023/08/05 02:33:05;;;;;;;5.70;3.50;;;;;;;;;;108634;1253;41511;-39
2023/08/05 02:35:39;;;;;;;5.40;3.60;;;;;;;;;;108625;1260;175530;-39
2023/08/05 02:38:13;;;;;;;5.50;3.40;;;;;;;;;;108697;1267;40181;-41
2023/08/05 02:40:47;;;;;;;5.90;3.20;;;;;;;;;;108646;1263;175515;-39
2023/08/05 02:43:41;;;;;;;5.50;3.70;;;;;;;;;;108628;1257;40474;-38
2023/08/05 02:46:16;;;;;;;5.40;3.50;;;;;;;;;;108628;1269;39398;-39
2023/08/05 02:48:52;;;;;;;5.80;3.70;;;;;;;;;;108638;1267;38501;-38
2023/08/05 02:51:29;;;;;;;5.00;3.70;;;;;;;;;;108634;1265;40892;-39
2023/08/05 02:54:03;;;;;;;5.50;3.50;;;;;;;;;;108645;1266;40658;-39
2023/08/05 02:56:37;;;;;;;5.50;3.80;;;;;;;;;;108723;1260;39895;-40
2023/08/05 02:59:12;;;;;;;5.50;3.40;;;;;;;;;;108802;1253;38650;-44
2023/08/05 03:01:46;;;;;;;5.30;3.70;;;;;;;;;;108726;1263;39957;-39
2023/08/05 03:04:19;;;;;;;5.60;3.70;;;;;;;;;;108650;1256;40488;-39
2023/08/05 03:06:55;;;;;;;5.30;3.80;;;;;;;;;;108650;1257;40647;-41
2023/08/05 03:09:29;;;;;;;4.90;3.70;;;;;;;;;;108661;1269;38388;-39
2023/08/05 03:12:06;;;;;;;5.40;3.80;;;;;;;;;;108523;1269;175521;-39
2023/08/05 03:14:40;;;;;;;5.20;3.50;;;;;;;;;;108610;1257;40732;-40
2023/08/05 03:17:13;;;;;;;6.00;3.70;;;;;;;;;;108740;1267;41078;-40
2023/08/05 03:19:51;;;;;;;5.30;3.70;;;;;;;;;;108742;1267;39901;-39
2023/08/05 03:22:27;;;;;;;6.10;3.80;;;;;;;;;;108758;1267;39943;-38
2023/08/05 03:25:02;;;;;;;6.20;4.00;;;;;;;;;;108654;1257;40412;-41
2023/08/05 03:27:35;;;;;;;5.40;3.90;;;;;;;;;;108622;1267;40857;-39
2023/08/05 03:30:11;;;;;;;6.00;3.50;;;;;;;;;;108648;1260;38564;-40
2023/08/05 03:32:47;;;;;;;5.40;3.80;;;;;;;;;;108641;1254;42083;-39
2023/08/05 03:35:20;;;;;;;6.30;4.00;;;;;;;;;;108718;1256;42760;-39
2023/08/05 03:37:57;;;;;;;5.60;3.80;;;;;;;;;;108701;1256;39474;-39
2023/08/05 03:40:31;;;;;;;5.60;3.70;;;;;;;;;;108713;1254;38433;-39
2023/08/05 03:43:08;;;;;;;6.10;3.80;;;;;;;;;;108711;1266;41109;-40
2023/08/05 03:45:49;;;;;;;6.20;4.00;;;;;;;;;;108588;1253;40731;-39
2023/08/05 03:48:23;;;;;;;5.40;3.70;;;;;;;;;;108625;1260;39689;-39
2023/08/05 03:50:57;;;;;;;6.00;3.70;;;;;;;;;;108656;1266;38800;-39
2023/08/05 03:53:33;;;;;;;6.20;4.00;;;;;;;;;;108610;1254;41109;-39
2023/08/05 03:56:08;;;;;;;5.60;3.90;;;;;;;;;;108481;1258;40786;-41
2023/08/05 03:58:41;;;;;;;6.10;4.10;;;;;;;;;;108749;1260;39749;-39
2023/08/05 04:01:17;;;;;;;5.50;3.90;;;;;;;;;;108716;1254;39586;-38
2023/08/05 04:03:52;;;;;;;6.10;4.00;;;;;;;;;;108781;1261;40172;-39
2023/08/05 04:06:27;;;;;;;5.50;3.80;;;;;;;;;;108626;1254;40654;-39
2023/08/05 04:09:00;;;;;;;5.60;3.70;;;;;;;;;;108505;1257;175541;-39
2023/08/05 04:11:36;;;;;;;6.20;4.10;;;;;;;;;;108662;1257;38519;-39
2023/08/05 04:14:14;;;;;;;5.80;4.00;;;;;;;;;;108678;1265;39679;-39
2023/08/05 04:16:48;;;;;;;5.50;3.60;;;;;;;;;;108685;1258;40823;-39
2023/08/05 04:19:25;;;;;;;6.10;4.20;;;;;;;;;;108765;1267;39730;-39
2023/08/05 04:22:01;;;;;;;5.70;3.90;;;;;;;;;;108733;1267;39770;-38
2023/08/05 04:24:39;;;;;;;6.20;4.00;;;;;;;;;;108626;1267;175510;-40
2023/08/05 04:27:13;;;;;;;5.80;4.00;;;;;;;;;;108665;1257;47233;-38
2023/08/05 04:29:46;;;;;;;5.90;4.00;;;;;;;;;;108521;1270;41201;-40
2023/08/05 04:32:20;;;;;;;6.10;4.20;;;;;;;;;;108511;1254;38475;-40
2023/08/05 04:34:54;;;;;;;5.80;3.90;;;;;;;;;;108511;1266;39813;-39
2023/08/05 04:37:28;;;;;;;5.60;3.70;;;;;;;;;;108695;1257;48212;-39
2023/08/05 04:40:05;;;;;;;5.90;3.70;;;;;;;;;;108732;1263;39444;-39
2023/08/05 04:42:38;;;;;;;5.80;3.80;;;;;;;;;;108740;1260;38359;-42
2023/08/05 04:45:16;;;;;;;6.80;3.80;;;;;;;;;;108741;1256;39886;-39
2023/08/05 04:47:49;;;;;;;5.80;4.00;;;;;;;;;;108596;1266;48893;-39
2023/08/05 04:50:26;;;;;;;6.10;3.50;;;;;;;;;;108531;1269;175525;-39
2023/08/05 04:52:59;;;;;;;6.30;4.00;;;;;;;;;;108662;1266;38476;-40
2023/08/05 04:55:33;;;;;;;5.80;3.90;;;;;;;;;;108674;1261;40035;-39
2023/08/05 04:58:08;;;;;;;5.90;3.90;;;;;;;;;;108710;1263;48316;-40
2023/08/05 05:00:42;;;;;;;6.10;3.90;;;;;;;;;;108747;1260;39895;-39
2023/08/05 05:03:16;;;;;;;6.20;3.70;;;;;;;;;;108721;1255;38407;-40
2023/08/05 05:05:50;;;;;;;5.60;3.80;;;;;;;;;;108736;1264;39859;-39
2023/08/05 05:08:24;;;;;;;5.90;3.90;;;;;;;;;;108476;1257;46288;-40
2023/08/05 05:10:58;;;;;;;5.20;3.20;;;;;;;;;;108503;1261;39456;-38
2023/08/05 05:13:35;;;;;;;5.60;3.60;;;;;;;;;;108530;1269;38319;-39
2023/08/05 05:16:12;;;;;;;5.60;3.60;;;;;;;;;;108546;1258;40140;-39
2023/08/05 05:18:48;;;;;;;6.10;4.00;;;;;;;;;;108691;1256;47208;-38
2023/08/05 05:21:27;;;;;;;6.00;3.80;;;;;;;;;;108648;1267;40713;-38
2023/08/05 05:24:01;;;;;;;5.70;3.80;;;;;;;;;;108742;1263;38575;-39
2023/08/05 05:26:35;;;;;;;5.20;3.60;;;;;;;;;;108705;1256;39725;-39
2023/08/05 05:29:11;;;;;;;5.30;3.50;;;;;;;;;;108618;1254;40957;-40
2023/08/05 05:31:48;;;;;;;5.70;3.60;;;;;;;;;;108651;1269;39701;-39
2023/08/05 05:34:22;;;;;;;5.90;3.80;;;;;;;;;;108658;1266;38613;-40
2023/08/05 05:36:57;;;;;;;5.50;3.80;;;;;;;;;;108625;1260;40873;-39
2023/08/05 05:39:32;;;;;;;5.70;3.90;;;;;;;;;;108713;1263;40457;-40
2023/08/05 05:42:10;;;;;;;5.60;3.90;;;;;;;;;;108725;1267;40719;-40
2023/08/05 05:44:52;;;;;;;5.50;3.60;;;;;;;;;;108695;1264;39747;-39
2023/08/05 05:47:26;;;;;;;6.20;3.70;;;;;;;;;;108708;1253;40094;-38
2023/08/05 05:50:00;;;;;;;6.20;3.70;;;;;;;;;;108633;1266;40461;-39
2023/08/05 05:52:34;;;;;;;5.40;3.50;;;;;;;;;;108670;1266;39675;-40
2023/08/05 05:55:11;;;;;;;5.20;3.60;;;;;;;;;;108627;1269;39829;-39
2023/08/05 05:57:45;;;;;;;7.00;3.80;;;;;;;;;;108635;1254;39472;-39
2023/08/05 06:00:19;;;;;;;5.90;3.40;;;;;;;;;;108687;1267;42040;-40
2023/08/05 06:02:53;;;;;;;5.40;3.40;;;;;;;;;;108714;1263;40902;-39
2023/08/05 06:05:30;;;;;;;5.20;3.40;;;;;;;;;;108725;1259;38883;-39
2023/08/05 06:08:04;;;;;;;5.80;3.80;;;;;;;;;;108656;1254;40085;-40
2023/08/05 06:10:41;;;;;;;6.00;3.60;;;;;;;;;;108648;1257;40449;-40
2023/08/05 06:13:16;;;;;;;5.70;3.70;;;;;;;;;;108600;1265;41017;-40
2023/08/05 06:15:50;;;;;;;6.50;3.50;;;;;;;;;;108656;1260;38574;-39
2023/08/05 06:18:26;;;;;;;6.30;3.70;;;;;;;;;;108633;1254;40921;-40
2023/08/05 06:21:00;;;;;;;6.50;3.60;;;;;;;;;;108709;1266;40715;-40
2023/08/05 06:23:33;;;;;;;5.80;3.70;;;;;;;;;;108709;1254;40888;-41
2023/08/05 06:26:08;;;;;;;5.50;3.80;;;;;;;;;;108708;1254;39644;-38
2023/08/05 06:28:42;;;;;;;5.30;3.30;;;;;;;;;;108662;1266;39791;-39
2023/08/05 06:31:17;;;;;;;6.70;3.70;;;;;;;;;;108631;1253;40564;-40
2023/08/05 06:33:56;;;;;;;6.30;3.80;;;;;;;;;;108618;1269;39426;-46
2023/08/05 06:36:34;;;;;;;5.20;3.40;;;;;;;;;;108600;1269;38879;-40
2023/08/05 06:39:11;;;;;;;5.60;3.70;;;;;;;;;;108655;1256;40185;-40
2023/08/05 06:41:47;;;;;;;5.90;3.50;;;;;;;;;;108647;1267;40764;-39
2023/08/05 06:44:28;;;;;;;5.60;3.20;;;;;;;;;;108671;1254;40848;-40
2023/08/05 06:47:03;;;;;;;5.40;3.40;;;;;;;;;;108620;1267;38354;-42
2023/08/05 06:49:44;;;;;;;5.10;3.40;;;;;;;;;;108581;1257;39754;-41
2023/08/05 06:52:22;;;;;;;5.50;3.60;;;;;;;;;;108581;1257;40574;-40
2023/08/05 06:55:01;;;;;;;5.50;3.60;;;;;;;;;;108635;1261;39543;-41
2023/08/05 06:57:37;;;;;;;5.20;3.50;;;;;;;;;;108629;1257;38801;-40
2023/08/05 07:00:18;;;;;;;5.90;3.50;;;;;;;;;;108620;1257;39784;-42
2023/08/05 07:02:57;;;;;;;5.70;3.40;;;;;;;;;;108602;1260;175149;-41
2023/08/05 07:05:33;;;;;;;5.30;3.50;;;;;;;;;;108676;1267;39425;-40
2023/08/05 07:08:08;;;;;;;6.70;3.60;;;;;;;;;;108701;1266;38582;-41
2023/08/05 07:10:43;;;;;;;5.00;3.10;;;;;;;;;;108607;1254;41024;-40
2023/08/05 07:13:17;;;;;;;6.30;3.50;;;;;;;;;;108604;1265;42994;-41
2023/08/05 07:15:58;;;;;;;5.80;3.20;;;;;;;;;;108637;1256;39669;-39
2023/08/05 07:18:39;;;;;;;5.80;3.30;;;;;;;;;;108615;1267;38637;-39
2023/08/05 07:21:16;;;;;;;6.90;3.60;;;;;;;;;;108688;1257;46352;-40
2023/08/05 07:23:55;;;;;;;6.90;3.60;;;;;;;;;;108733;1254;40523;-40
2023/08/05 07:26:30;;;;;;;6.10;4.00;;;;;;;;;;108694;1267;40158;-40
2023/08/05 07:29:09;;;;;;;5.60;3.30;;;;;;;;;;108728;1267;38613;-41
2023/08/05 07:31:46;;;;;;;6.50;3.60;;;;;;;;;;108476;1270;46116;-40
2023/08/05 07:34:30;;;;;;;6.20;3.40;;;;;;;;;;108591;1257;40547;-42
2023/08/05 07:37:06;;;;;;;6.20;3.40;;;;;;;;;;108600;1257;39659;-40
2023/08/05 07:39:46;;;;;;;6.10;3.70;;;;;;;;;;108615;1254;38357;-40
2023/08/05 07:42:24;;;;;;;5.80;3.50;;;;;;;;;;108684;1257;39968;-41
2023/08/05 07:45:02;;;;;;;5.90;3.40;;;;;;;;;;108693;1257;40427;-39
2023/08/05 07:47:40;;;;;;;5.90;3.50;;;;;;;;;;108731;1257;39605;-39
2023/08/05 07:50:21;;;;;;;6.40;3.50;;;;;;;;;;108633;1253;38455;-39
2023/08/05 07:52:58;;;;;;;6.10;3.40;;;;;;;;;;108639;1257;39552;-40
2023/08/05 07:55:42;;;;;;;6.40;3.40;;;;;;;;;;108627;1266;40567;-39
2023/08/05 07:58:26;;;;;;;6.20;3.40;;;;;;;;;;108458;1266;199184;-42
2023/08/05 08:01:07;;;;;;;6.10;3.30;;;;;;;;;;108610;1259;38421;-39
2023/08/05 08:03:42;;;;;;;6.10;3.80;;;;;;;;;;108697;1257;39900;-39
2023/08/05 08:06:18;;;;;;;5.30;3.20;;;;;;;;;;108641;1255;40382;-40
2023/08/05 08:08:55;;;;;;;5.50;3.20;;;;;;;;;;108663;1263;40907;-40
2023/08/05 08:11:32;;;;;;;5.60;3.30;;;;;;;;;;108575;1257;38464;-40
2023/08/05 08:14:07;;;;;;;5.20;3.30;;;;;;;;;;108614;1270;39477;-39
2023/08/05 08:16:42;;;;;;;6.00;3.40;;;;;;;;;;108585;1266;40383;-40
2023/08/05 08:19:18;;;;;;;5.10;3.20;;;;;;;;;;108613;1266;39616;-40
2023/08/05 08:22:05;;;;;;;6.10;3.40;;;;;;;;;;108662;1256;38428;-40
2023/08/05 08:24:39;;;;;;;5.10;3.20;;;;;;;;;;108696;1263;39611;-40
2023/08/05 08:27:16;;;;;;;5.70;3.30;;;;;;;;;;108703;1263;41120;-40
2023/08/05 08:29:51;;;;;;;5.30;3.40;;;;;;;;;;108684;1263;40765;-44
2023/08/05 08:32:31;;;;;;;5.90;3.40;;;;;;;;;;107911;1253;891544;-41
2023/08/05 08:35:08;;;;;;;5.10;3.30;;;;;;;;;;108578;1254;39962;-40
2023/08/05 08:37:48;;;;;;;5.90;3.40;;;;;;;;;;108623;1266;40774;-40
2023/08/05 08:40:25;;;;;;;5.20;3.20;;;;;;;;;;108609;1269;39934;-39
2023/08/05 08:43:00;;;;;;;6.00;3.50;;;;;;;;;;108649;1257;44405;-39
2023/08/05 08:45:39;;;;;;;5.00;3.40;;;;;;;;;;108678;1263;41079;-40
2023/08/05 08:48:17;;;;;;;5.20;3.40;;;;;;;;;;108703;1257;42507;-40
2023/08/05 08:50:54;;;;;;;4.90;3.20;;;;;;;;;;108713;1254;39444;-40
2023/08/05 08:53:34;;;;;;;5.60;3.50;;;;;;;;;;108591;1264;45314;-41
2023/08/05 08:56:14;;;;;;;5.10;3.40;;;;;;;;;;108629;1269;39536;-39
2023/08/05 08:58:52;;;;;;;5.90;3.50;;;;;;;;;;108660;1265;41971;-40
2023/08/05 09:01:27;;;;;;;5.40;3.40;;;;;;;;;;108584;1254;40812;-40
2023/08/05 09:04:03;;;;;;;5.40;3.50;;;;;;;;;;108712;1267;38433;-40
2023/08/05 09:06:40;;;;;;;6.30;3.40;;;;;;;;;;108701;1267;39600;-41
2023/08/05 09:09:14;;;;;;;5.40;3.30;;;;;;;;;;108720;1267;40507;-40
2023/08/05 09:11:48;;;;;;;5.50;3.40;;;;;;;;;;108628;1254;39835;-40
2023/08/05 09:14:23;;;;;;;6.40;3.60;;;;;;;;;;108633;1266;38511;-40
2023/08/05 09:17:06;;;;;;;5.90;4.00;;;;;;;;;;108610;1266;40034;-40
2023/08/05 09:19:43;;;;;;;5.80;3.80;;;;;;;;;;108636;1269;41668;-38
2023/08/05 09:22:18;;;;;;;6.50;3.90;;;;;;;;;;108545;1254;39734;-41
2023/08/05 09:25:02;;;;;;;6.40;3.60;;;;;;;;;;108728;1253;38787;-41
2023/08/05 09:27:52;;;;;;;5.70;3.30;;;;;;;;;;108655;1267;39505;-40
2023/08/05 09:30:32;;;;;;;5.70;3.80;;;;;;;;;;108663;1268;41947;-39
2023/08/05 09:33:07;;;;;;;5.50;3.50;;;;;;;;;;108496;1256;40129;-39
2023/08/05 09:35:52;;;;;;;5.20;3.80;;;;;;;;;;108546;1254;38377;-39
2023/08/05 09:38:28;;;;;;;5.80;3.90;;;;;;;;;;108484;1259;41126;-40
2023/08/05 09:41:03;;;;;;;6.80;4.00;;;;;;;;;;108498;1270;40608;-38
2023/08/05 09:43:40;;;;;;;5.80;3.80;;;;;;;;;;108557;1253;39653;-39
2023/08/05 09:46:21;;;;;;;6.40;3.70;;;;;;;;;;108599;1268;39322;-38
2023/08/05 09:48:57;;;;;;;5.70;4.00;;;;;;;;;;108580;1269;41063;-37
2023/08/05 09:51:35;;;;;;;5.60;3.50;;;;;;;;;;108648;1263;43045;-43
2023/08/05 09:54:13;;;;;;;5.90;3.90;;;;;;;;;;108458;1259;39887;-38
2023/08/05 09:56:48;;;;;;;6.00;3.70;;;;;;;;;;108447;1259;38814;-39
2023/08/05 09:59:24;;;;;;;6.20;3.70;;;;;;;;;;108452;1259;39907;-39
2023/08/05 10:02:02;;;;;;;5.70;3.80;;;;;;;;;;108427;1257;40556;-39
2023/08/05 10:04:39;;;;;;;5.80;3.90;;;;;;;;;;108642;1254;39560;-40
2023/08/05 10:07:14;;;;;;;6.10;3.90;;;;;;;;;;108629;1269;38787;-39
2023/08/05 10:09:52;;;;;;;5.70;3.80;;;;;;;;;;108655;1254;39760;-39
2023/08/05 10:12:34;;;;;;;6.20;3.70;;;;;;;;;;108672;1256;40735;-39
2023/08/05 10:15:25;;;;;;;4.70;3.50;;;;;;;;;;108382;1270;45779;-39
2023/08/05 10:17:59;;;;;;;6.30;3.40;;;;;;;;;;108459;1269;38800;-39
2023/08/05 10:20:38;;;;;;;5.90;3.50;;;;;;;;;;108459;1257;39934;-39
2023/08/05 10:23:15;;;;;;;5.50;3.40;;;;;;;;;;108472;1254;40737;-40
2023/08/05 10:25:59;;;;;;;4.90;3.30;;;;;;;;;;108679;1254;39852;-40
2023/08/05 10:28:45;;;;;;;8.10;3.10;;;;;;;;;;108602;1269;38567;-39
2023/08/05 10:31:29;;;;;;;5.60;3.40;;;;;;;;;;108600;1261;41204;-35
2023/08/05 10:34:21;;;;;;;5.40;3.40;;;;;;;;;;108669;1254;40649;-37
2023/08/05 10:37:01;;;;;;;5.70;3.20;;;;;;;;;;108493;1270;39690;-36
2023/08/05 10:39:50;;;;;;;5.00;3.40;;;;;;;;;;108494;1270;38671;-37
2023/08/05 10:42:41;;;;;;;5.90;3.40;;;;;;;;;;108466;1260;40114;-35
2023/08/05 10:45:23;;;;;;;5.50;3.10;;;;;;;;;;108342;1259;40701;-37
2023/08/05 10:47:59;;;;;;;6.90;3.50;;;;;;;;;;108324;1260;175533;-37
2023/08/05 10:50:43;;;;;;;5.50;3.00;;;;;;;;;;108447;1270;38344;-38
2023/08/05 10:53:17;;;;;;;5.40;3.00;;;;;;;;;;108418;1270;41150;-35
2023/08/05 10:55:56;;;;;;;5.00;3.10;;;;;;;;;;108270;1259;40520;-37
2023/08/05 10:58:53;;;;;;;4.70;2.80;;;;;;;;;;108316;1269;39878;-37
2023/08/05 11:01:57;;;;;;;5.40;2.90;;;;;;;;;;108323;1261;38784;-37
2023/08/05 11:04:33;;;;;;;5.10;2.90;;;;;;;;;;108286;1256;40128;-36
2023/08/05 11:07:10;;;;;;;5.30;3.00;;;;;;;;;;108395;1269;40502;-36
2023/08/05 11:09:44;;;;;;;4.50;2.80;;;;;;;;;;108491;1263;39917;-36
2023/08/05 11:12:20;;;;;;;4.80;3.00;;;;;;;;;;108452;1269;39250;-36
2023/08/05 11:14:59;;;;;;;4.80;2.80;;;;;;;;;;108376;1259;40308;-37
2023/08/05 11:17:33;;;;;;;4.70;3.00;;;;;;;;;;108410;1270;40920;-37
2023/08/05 11:20:09;;;;;;;4.50;2.70;;;;;;;;;;108402;1270;40117;-37
2023/08/05 11:22:49;;;;;;;4.70;3.10;;;;;;;;;;108292;1259;38642;-36
2023/08/05 11:25:23;;;;;;;4.80;3.20;;;;;;;;;;108281;1259;40166;-36
2023/08/05 11:27:57;;;;;;;4.70;3.10;;;;;;;;;;108308;1267;40955;-36
2023/08/05 11:30:56;;;;;;;4.40;2.70;;;;;;;;;;108363;1258;39683;-36
2023/08/05 11:33:36;;;;;;;5.00;2.80;;;;;;;;;;108365;1268;39956;-39
2023/08/05 11:36:15;;;;;;;5.90;3.10;;;;;;;;;;108348;1256;41214;-37
2023/08/05 11:38:57;;;;;;;5.20;3.10;;;;;;;;;;108287;1266;40687;-38
2023/08/05 11:41:32;;;;;;;5.10;3.00;;;;;;;;;;108323;1269;41185;-37
2023/08/05 11:44:06;;;;;;;5.10;2.90;;;;;;;;;;108326;1259;39089;-37
2023/08/05 11:47:09;;;;;;;5.60;3.00;;;;;;;;;;108419;1257;47811;-37
2023/08/05 11:49:55;;;;;;;4.30;2.60;;;;;;;;;;107793;1270;891825;-37
2023/08/05 11:52:32;;;;;;;4.70;2.70;;;;;;;;;;108521;1266;39891;-37
2023/08/05 11:55:10;;;;;;;5.50;3.00;;;;;;;;;;108421;1254;38686;-36
2023/08/05 11:57:47;;;;;;;5.00;3.10;;;;;;;;;;108658;1257;41235;-37
2023/08/05 12:00:26;;;;;;;5.20;3.00;;;;;;;;;;108540;1257;40909;-36
2023/08/05 12:03:01;;;;;;;5.70;2.90;;;;;;;;;;108534;1269;39495;-37
2023/08/05 12:05:36;;;;;;;4.50;3.00;;;;;;;;;;108600;1264;38823;-37
2023/08/05 12:08:10;;;;;;;5.90;3.20;;;;;;;;;;108603;1257;40098;-37
2023/08/05 12:10:58;;;;;;;5.40;3.10;;;;;;;;;;108604;1267;40913;-38
2023/08/05 12:13:37;;;;;;;5.90;3.40;;;;;;;;;;108599;1266;39780;-37
2023/08/05 12:16:20;;;;;;;6.40;4.00;;;;;;;;;;108547;1257;38410;-36
2023/08/05 12:18:56;;;;;;;5.50;3.70;;;;;;;;;;108447;1266;39969;-38
2023/08/05 12:21:33;;;;;;;5.60;3.60;;;;;;;;;;108530;1269;40398;-37
2023/08/05 12:24:12;;;;;;;5.80;3.60;;;;;;;;;;108569;1261;39706;-36
2023/08/05 12:26:48;;;;;;;5.40;3.60;;;;;;;;;;108438;1254;38649;-37
2023/08/05 12:29:24;;;;;;;5.80;3.70;;;;;;;;;;108346;1260;175214;-36
2023/08/05 12:31:57;;;;;;;5.50;3.50;;;;;;;;;;108454;1260;40512;-37
2023/08/05 12:34:31;;;;;;;6.00;3.70;;;;;;;;;;108465;1257;39463;-35
2023/08/05 12:37:06;;;;;;;5.30;3.40;;;;;;;;;;108417;1259;39032;-36
2023/08/05 12:39:42;;;;;;;5.20;3.70;;;;;;;;;;108481;1270;40068;-40
2023/08/05 12:42:16;;;;;;;5.10;3.60;;;;;;;;;;108438;1260;40594;-37
2023/08/05 12:44:50;;;;;;;4.70;3.20;;;;;;;;;;108397;1260;40208;-37
2023/08/05 12:47:24;;;;;;;6.50;3.50;;;;;;;;;;108576;1257;40520;-36
2023/08/05 12:50:04;;;;;;;5.50;3.50;;;;;;;;;;108660;1255;41488;-37
2023/08/05 12:53:04;;;;;;;6.00;3.60;;;;;;;;;;108440;1261;40875;-36
2023/08/05 12:55:38;;;;;;;5.20;3.30;;;;;;;;;;108578;1266;41070;-39
2023/08/05 12:58:15;;;;;;;5.50;3.60;;;;;;;;;;108420;1267;38689;-38
2023/08/05 13:00:49;;;;;;;4.80;3.50;;;;;;;;;;108543;1266;40324;-39
2023/08/05 13:03:24;;;;;;;6.50;3.60;;;;;;;;;;108553;1267;40705;-38
2023/08/05 13:05:59;;;;;;;6.20;3.10;;;;;;;;;;108587;1253;39873;-37
2023/08/05 13:08:35;;;;;;;5.40;3.30;;;;;;;;;;108476;1254;178016;-36
2023/08/05 13:11:11;;;;;;;5.00;3.50;;;;;;;;;;108630;1256;41193;-36
2023/08/05 13:13:49;;;;;;;5.80;3.50;;;;;;;;;;108604;1267;40671;-37
2023/08/05 13:16:23;;;;;;;5.50;3.50;;;;;;;;;;108553;1269;40879;-38
2023/08/05 13:18:59;;;;;;;4.40;3.00;;;;;;;;;;108366;1260;43610;-36
2023/08/05 13:21:33;;;;;;;6.00;3.60;;;;;;;;;;108349;1257;39923;-36
2023/08/05 13:24:10;;;;;;;5.60;3.30;;;;;;;;;;108420;1270;42015;-36
2023/08/05 13:26:44;;;;;;;5.60;3.40;;;;;;;;;;108446;1266;39668;-38
2023/08/05 13:29:19;;;;;;;5.40;3.30;;;;;;;;;;108577;1257;38758;-37
2023/08/05 13:31:53;;;;;;;5.10;3.00;;;;;;;;;;108672;1266;39956;-38
2023/08/05 13:34:27;;;;;;;4.90;3.10;;;;;;;;;;108675;1263;40762;-36
2023/08/05 13:37:04;;;;;;;4.90;3.00;;;;;;;;;;108602;1260;42262;-37
2023/08/05 13:39:37;;;;;;;5.90;2.90;;;;;;;;;;108453;1270;44574;-36
2023/08/05 13:42:17;;;;;;;4.80;2.80;;;;;;;;;;108595;1258;40260;-36
2023/08/05 13:44:55;;;;;;;4.90;2.80;;;;;;;;;;108572;1255;40344;-37
2023/08/05 13:47:33;;;;;;;6.70;3.10;;;;;;;;;;108530;1254;39879;-36
2023/08/05 13:50:09;;;;;;;4.50;2.70;;;;;;;;;;108595;1267;38534;-38
2023/08/05 13:52:44;;;;;;;5.00;2.70;;;;;;;;;;108546;1254;175531;-37
2023/08/05 13:55:25;;;;;;;5.10;2.60;;;;;;;;;;108609;1269;40453;-36
2023/08/05 13:58:06;;;;;;;4.30;2.30;;;;;;;;;;108466;1260;40968;-36
2023/08/05 14:00:41;;;;;;;5.80;2.60;;;;;;;;;;108437;1270;38301;-36
2023/08/05 14:03:18;;;;;;;4.20;2.30;;;;;;;;;;108438;1260;40022;-36
2023/08/05 14:05:57;;;;;;;4.20;2.20;;;;;;;;;;108327;1260;175585;-36
2023/08/05 14:08:31;;;;;;;5.40;2.30;;;;;;;;;;108500;1263;40688;-36
2023/08/05 14:11:05;;;;;;;5.00;2.70;;;;;;;;;;108616;1260;38482;-38
2023/08/05 14:13:42;;;;;;;4.30;2.60;;;;;;;;;;108484;1260;175835;-37
2023/08/05 14:16:19;;;;;;;5.20;3.50;;;;;;;;;;108476;1260;175573;-38
2023/08/05 14:18:53;;;;;;;7.80;6.10;;;;;;;;;;108606;1263;39742;-37
2023/08/05 14:21:27;;;;;;;7.00;5.30;;;;;;;;;;107895;1262;38803;-38
2023/08/05 14:24:01;;;;;;;10.70;9.00;;;;;;;;;;107707;1261;51777;-38
2023/08/05 14:26:38;;;;;;;8.70;7.60;;;;;;;;;;107749;1261;41469;-41
2023/08/05 14:29:12;;;;;;;8.20;6.90;;;;;;;;;;107720;1260;40687;-38
2023/08/05 14:31:49;;;;;;;8.90;6.60;;;;;;;;;;107928;1261;50946;-41
2023/08/05 14:34:29;;;;;;;8.90;6.60;;;;;;;;;;107871;1260;47764;-36
2023/08/05 14:37:07;;;;;;;7.30;5.30;;;;;;;;;;107848;1261;41658;-36
2023/08/05 14:39:45;;;;;;;8.80;5.60;;;;;;;;;;107694;1262;176616;-36
2023/08/05 14:42:25;;;;;;;6.70;5.00;;;;;;;;;;107887;1260;39148;-36
2023/08/05 14:45:07;;;;;;;7.10;5.10;;;;;;;;;;107835;1260;40952;-36
2023/08/05 14:47:42;;;;;;;7.00;5.20;;;;;;;;;;107846;1260;48614;-36
2023/08/05 14:50:20;;;;;;;6.60;4.70;;;;;;;;;;107909;1260;41289;-36
2023/08/05 14:52:56;;;;;;;6.00;4.70;;;;;;;;;;107955;1259;40926;-36
2023/08/05 14:55:33;;;;;;;8.10;4.80;;;;;;;;;;107783;1262;40753;-37
2023/08/05 14:58:08;;;;;;;7.10;4.70;;;;;;;;;;107921;1260;41615;-36
2023/08/05 15:00:42;;;;;;;6.90;5.10;;;;;;;;;;107818;1260;40562;-37
2023/08/05 15:03:23;;;;;;;6.60;4.70;;;;;;;;;;107811;1260;40649;-39
2023/08/05 15:06:06;;;;;;;6.00;4.90;;;;;;;;;;107759;1260;41744;-45
2023/08/05 15:08:46;;;;;;;5.80;4.20;;;;;;;;;;107640;1260;176589;-39
2023/08/05 15:11:29;;;;;;;5.80;4.30;;;;;;;;;;107834;1260;49445;-39
2023/08/05 15:14:08;;;;;;;6.30;4.10;;;;;;;;;;107839;1260;39463;-39
2023/08/05 15:16:45;;;;;;;7.20;4.30;;;;;;;;;;107912;1260;40806;-39
2023/08/05 15:19:23;;;;;;;39.00;10.10;;;;;;;;;;107889;1260;42655;-37
2023/08/05 15:21:59;;;;;;;40.50;9.90;;;;;;;;;;107901;1260;52393;-36
2023/08/05 15:24:33;;;;;;;21.00;7.50;;;;;;;;;;107932;1260;39370;-37
2023/08/05 15:27:13;;;;;;;19.40;6.60;;;;;;;;;;107922;1260;40515;-37